Time;durP1;ratioP1;P1;durP2;ratioP2;P2;SDS_P1;SDS_P2;PMS_P1;PMS_P2;Temp;Humidity;BMP_temperature;BMP_pressure;BME280_temperature;BME280_humidity;BME280_pressure;Samples;Min_cycle;Max_cycle;Signal;HPM_P1;HPM_P2
2022/10/05 00:01:22;;;;;;;;;;;10.80;99.90;;;;;;6107420;23;20170;-74
2022/10/05 00:03:48;;;;;;;;;;;10.80;99.90;;;;;;6084198;23;19905;-74
2022/10/05 00:06:14;;;;;;;;;;;10.90;99.90;;;;;;6104492;23;19911;-73
2022/10/05 00:08:39;;;;;;;;;;;10.80;99.90;;;;;;6109947;23;20333;-73
2022/10/05 00:11:06;;;;;;;;;;;10.70;99.90;;;;;;6108606;23;19904;-74
2022/10/05 00:13:32;;;;;;;;;;;10.70;99.90;;;;;;6083880;23;19901;-73
2022/10/05 00:16:08;;;;;;;;;;;10.70;99.90;;;;;;6085469;23;19911;-73
2022/10/05 00:18:33;;;;;;;;;;;10.70;99.90;;;;;;6106501;23;20580;-74
2022/10/05 00:20:59;;;;;;;;;;;10.70;99.90;;;;;;6088503;23;19901;-74
2022/10/05 00:23:26;;;;;;;;;;;10.60;99.90;;;;;;6108935;23;19954;-73
2022/10/05 00:25:51;;;;;;;;;;;10.60;99.90;;;;;;6085040;23;19900;-74
2022/10/05 00:28:26;;;;;;;;;;;10.70;99.90;;;;;;6115438;23;19912;-74
2022/10/05 00:30:58;;;;;;;;;;;10.70;99.90;;;;;;6084692;23;19905;-73
2022/10/05 00:33:26;;;;;;;;;;;10.70;99.90;;;;;;6110996;23;19935;-74
2022/10/05 00:35:54;;;;;;;;;;;10.70;99.90;;;;;;6111699;23;19912;-75
2022/10/05 00:38:20;;;;;;;;;;;10.70;99.90;;;;;;6111565;23;19901;-73
2022/10/05 00:41:05;;;;;;;;;;;10.70;99.90;;;;;;6085793;23;19924;-74
2022/10/05 00:43:52;;;;;;;;;;;10.70;99.90;;;;;;6111976;23;19912;-73
2022/10/05 00:46:22;;;;;;;;;;;10.60;99.90;;;;;;6110560;23;19909;-73
2022/10/05 00:48:49;;;;;;;;;;;10.60;99.90;;;;;;6086462;23;19972;-73
2022/10/05 00:51:26;;;;;;;;;;;10.60;99.90;;;;;;6105928;23;19923;-74
2022/10/05 00:54:10;;;;;;;;;;;10.60;99.90;;;;;;6117103;23;20291;-73
2022/10/05 00:56:56;;;;;;;;;;;10.60;99.90;;;;;;6110379;23;19909;-74
2022/10/05 00:59:35;;;;;;;;;;;10.60;99.90;;;;;;6109827;23;19912;-74
2022/10/05 01:02:24;;;;;;;;;;;10.50;99.90;;;;;;6110249;23;19901;-73
2022/10/05 01:05:13;;;;;;;;;;;10.50;99.90;;;;;;6109287;23;20274;-73
2022/10/05 01:07:44;;;;;;;;;;;10.40;99.90;;;;;;6089133;23;19912;-73
2022/10/05 01:10:17;;;;;;;;;;;10.40;99.90;;;;;;6105811;23;20204;-73
2022/10/05 01:13:01;;;;;;;;;;;10.30;99.90;;;;;;6108407;23;20286;-74
2022/10/05 01:15:28;;;;;;;;;;;10.30;99.90;;;;;;6114228;23;19915;-73
2022/10/05 01:17:55;;;;;;;;;;;10.30;99.90;;;;;;6104177;23;19984;-74
2022/10/05 01:20:40;;;;;;;;;;;10.30;99.90;;;;;;6109950;23;20006;-74
2022/10/05 01:23:28;;;;;;;;;;;10.40;99.90;;;;;;6110845;23;19904;-73
2022/10/05 01:26:00;;;;;;;;;;;10.40;99.90;;;;;;6109287;23;20043;-74
2022/10/05 01:28:54;;;;;;;;;;;10.30;99.90;;;;;;6110816;23;19923;-74
2022/10/05 01:31:27;;;;;;;;;;;10.30;99.90;;;;;;6078829;23;19908;-73
2022/10/05 01:34:12;;;;;;;;;;;10.40;99.90;;;;;;6084278;23;19963;-74
2022/10/05 01:36:47;;;;;;;;;;;10.30;99.90;;;;;;6113791;23;19936;-74
2022/10/05 01:39:18;;;;;;;;;;;10.30;99.90;;;;;;6110036;23;19923;-73
2022/10/05 01:42:01;;;;;;;;;;;10.30;99.90;;;;;;6108314;23;19955;-74
2022/10/05 01:44:32;;;;;;;;;;;10.20;99.90;;;;;;6110294;23;19928;-73
2022/10/05 01:47:04;;;;;;;;;;;10.00;99.90;;;;;;6108220;23;19904;-73
2022/10/05 01:49:36;;;;;;;;;;;9.90;99.90;;;;;;6111016;23;20405;-74
2022/10/05 01:52:16;;;;;;;;;;;9.90;99.90;;;;;;6108869;23;19916;-74
2022/10/05 01:55:00;;;;;;;;;;;9.90;99.90;;;;;;6108902;23;19901;-74
2022/10/05 01:57:45;;;;;;;;;;;9.90;99.90;;;;;;6109805;23;20516;-73
2022/10/05 02:00:12;;;;;;;;;;;9.90;99.90;;;;;;6110292;23;19975;-74
2022/10/05 02:02:47;;;;;;;;;;;9.90;99.90;;;;;;6109614;23;19911;-73
2022/10/05 02:05:21;;;;;;;;;;;9.90;99.90;;;;;;6104140;23;19912;-73
2022/10/05 02:07:53;;;;;;;;;;;9.90;99.90;;;;;;6110136;23;19905;-74
2022/10/05 02:10:37;;;;;;;;;;;9.90;99.90;;;;;;6109111;23;19905;-73
2022/10/05 02:13:08;;;;;;;;;;;9.90;99.90;;;;;;6109253;23;20255;-74
2022/10/05 02:15:44;;;;;;;;;;;9.90;99.90;;;;;;6084122;23;19980;-73
2022/10/05 02:18:18;;;;;;;;;;;9.80;99.90;;;;;;6110201;23;19905;-73
2022/10/05 02:20:45;;;;;;;;;;;9.80;99.90;;;;;;6110012;23;19973;-73
2022/10/05 02:23:17;;;;;;;;;;;9.80;99.90;;;;;;6109731;23;19905;-74
2022/10/05 02:25:45;;;;;;;;;;;9.70;99.90;;;;;;6114787;23;20242;-74
2022/10/05 02:28:14;;;;;;;;;;;9.80;99.90;;;;;;6103734;23;20606;-74
2022/10/05 02:30:43;;;;;;;;;;;9.70;99.90;;;;;;6108339;23;19956;-74
2022/10/05 02:33:22;;;;;;;;;;;9.70;99.90;;;;;;6115228;23;20206;-73
2022/10/05 02:35:48;;;;;;;;;;;9.70;99.90;;;;;;6104980;23;19968;-74
2022/10/05 02:38:34;;;;;;;;;;;9.70;99.90;;;;;;6116107;23;19904;-74
2022/10/05 02:41:18;;;;;;;;;;;9.60;99.90;;;;;;6107577;23;19905;-73
2022/10/05 02:43:53;;;;;;;;;;;9.60;99.90;;;;;;6116001;23;19980;-74
2022/10/05 02:46:22;;;;;;;;;;;9.60;99.90;;;;;;6104601;23;19928;-74
2022/10/05 02:48:54;;;;;;;;;;;9.50;99.90;;;;;;6111312;23;19921;-73
2022/10/05 02:51:20;;;;;;;;;;;9.50;99.90;;;;;;6109048;23;20311;-74
2022/10/05 02:53:46;;;;;;;;;;;9.60;99.90;;;;;;6109406;23;19904;-74
2022/10/05 02:56:27;;;;;;;;;;;9.70;99.90;;;;;;6108131;23;19920;-74
2022/10/05 02:58:54;;;;;;;;;;;9.70;99.90;;;;;;6104824;23;19901;-74
2022/10/05 03:01:23;;;;;;;;;;;9.60;99.90;;;;;;6110400;23;19900;-74
2022/10/05 03:04:03;;;;;;;;;;;9.60;99.90;;;;;;6108551;23;19934;-74
2022/10/05 03:06:34;;;;;;;;;;;9.60;99.90;;;;;;6112567;23;19901;-74
2022/10/05 03:09:04;;;;;;;;;;;9.60;99.90;;;;;;6105407;23;20439;-74
2022/10/05 03:11:42;;;;;;;;;;;9.60;99.90;;;;;;6107794;23;19912;-74
2022/10/05 03:14:17;;;;;;;;;;;9.60;99.90;;;;;;6113586;23;20011;-74
2022/10/05 03:17:02;;;;;;;;;;;9.50;99.90;;;;;;6108980;23;19978;-73
2022/10/05 03:19:43;;;;;;;;;;;9.60;99.90;;;;;;6103436;23;19975;-73
2022/10/05 03:22:11;;;;;;;;;;;9.50;99.90;;;;;;6108413;23;20192;-74
2022/10/05 03:24:55;;;;;;;;;;;9.60;99.90;;;;;;6114139;23;19905;-73
2022/10/05 03:27:41;;;;;;;;;;;9.60;99.90;;;;;;6110708;23;19909;-73
2022/10/05 03:30:24;;;;;;;;;;;9.50;99.90;;;;;;6108753;23;19901;-74
2022/10/05 03:33:01;;;;;;;;;;;9.50;99.90;;;;;;6103269;23;19975;-74
2022/10/05 03:35:39;;;;;;;;;;;9.50;99.90;;;;;;6108135;23;19963;-74
2022/10/05 03:38:26;;;;;;;;;;;9.60;99.90;;;;;;6112563;23;19901;-73
2022/10/05 03:40:59;;;;;;;;;;;9.60;99.90;;;;;;6108357;23;19959;-74
2022/10/05 03:43:24;;;;;;;;;;;9.60;99.90;;;;;;6104396;23;20223;-74
2022/10/05 03:46:02;;;;;;;;;;;9.60;99.90;;;;;;6109655;23;19972;-74
2022/10/05 03:48:43;;;;;;;;;;;9.60;99.90;;;;;;6110531;23;19932;-74
2022/10/05 03:51:30;;;;;;;;;;;9.60;99.90;;;;;;6112132;23;19909;-73
2022/10/05 03:54:00;;;;;;;;;;;9.60;99.90;;;;;;6110833;23;19960;-74
2022/10/05 03:56:37;;;;;;;;;;;9.50;99.90;;;;;;6086398;23;19905;-73
2022/10/05 03:59:03;;;;;;;;;;;9.50;99.90;;;;;;6105555;23;19901;-73
2022/10/05 04:01:53;;;;;;;;;;;9.50;99.90;;;;;;6113513;23;19901;-73
2022/10/05 04:04:24;;;;;;;;;;;9.50;99.90;;;;;;6070286;23;19900;-73
2022/10/05 04:06:51;;;;;;;;;;;9.30;99.90;;;;;;6108913;23;19901;-74
2022/10/05 04:09:23;;;;;;;;;;;9.20;99.90;;;;;;6111259;23;20426;-74
2022/10/05 04:11:55;;;;;;;;;;;9.20;99.90;;;;;;6110806;23;20227;-74
2022/10/05 04:14:33;;;;;;;;;;;9.30;99.90;;;;;;6086376;23;20347;-74
2022/10/05 04:17:01;;;;;;;;;;;9.30;99.90;;;;;;6110324;23;19932;-74
2022/10/05 04:19:31;;;;;;;;;;;9.30;99.90;;;;;;6112011;23;19932;-73
2022/10/05 04:22:23;;;;;;;;;;;9.30;99.90;;;;;;6104483;23;19909;-73
2022/10/05 04:24:56;;;;;;;;;;;9.30;99.90;;;;;;6065983;23;20230;-73
2022/10/05 04:27:42;;;;;;;;;;;9.30;99.90;;;;;;6105806;23;20311;-74
2022/10/05 04:30:11;;;;;;;;;;;9.30;99.90;;;;;;6109285;23;19952;-73
2022/10/05 04:32:56;;;;;;;;;;;9.30;99.90;;;;;;6110441;23;19951;-74
2022/10/05 04:35:40;;;;;;;;;;;9.30;99.90;;;;;;6104504;23;19948;-74
2022/10/05 04:38:24;;;;;;;;;;;9.30;99.90;;;;;;6109708;23;19901;-74
2022/10/05 04:40:53;;;;;;;;;;;9.30;99.90;;;;;;6110462;23;19956;-74
2022/10/05 04:43:19;;;;;;;;;;;9.20;99.90;;;;;;6111608;23;19992;-74
2022/10/05 04:46:04;;;;;;;;;;;9.20;99.90;;;;;;6108987;23;19986;-74
2022/10/05 04:48:36;;;;;;;;;;;9.30;99.90;;;;;;6112158;23;19904;-74
2022/10/05 04:51:19;;;;;;;;;;;9.30;99.90;;;;;;6108988;23;20034;-73
2022/10/05 04:53:51;;;;;;;;;;;9.30;99.90;;;;;;6111658;23;19939;-74
2022/10/05 04:56:37;;;;;;;;;;;9.30;99.90;;;;;;6111659;23;19904;-74
2022/10/05 04:59:15;;;;;;;;;;;9.30;99.90;;;;;;6111434;23;19952;-74
2022/10/05 05:01:54;;;;;;;;;;;9.30;99.90;;;;;;6084710;23;19947;-74
2022/10/05 05:04:39;;;;;;;;;;;9.30;99.90;;;;;;6111404;23;19936;-75
2022/10/05 05:07:27;;;;;;;;;;;9.40;99.90;;;;;;6116850;23;19901;-74
2022/10/05 05:10:01;;;;;;;;;;;9.50;99.90;;;;;;6111639;23;19901;-74
2022/10/05 05:12:27;;;;;;;;;;;9.70;99.90;;;;;;6110169;23;19905;-74
2022/10/05 05:15:15;;;;;;;;;;;10.00;99.90;;;;;;6109174;23;19985;-74
2022/10/05 05:17:59;;;;;;;;;;;10.20;99.90;;;;;;6113786;23;19915;-74
2022/10/05 05:20:50;;;;;;;;;;;10.60;99.90;;;;;;6107549;23;19977;-67
2022/10/05 05:23:34;;;;;;;;;;;11.10;99.90;;;;;;6111528;23;20319;-68
2022/10/05 05:26:18;;;;;;;;;;;11.50;99.90;;;;;;6114300;23;20242;-68
2022/10/05 05:28:56;;;;;;;;;;;11.80;99.90;;;;;;6114080;23;19912;-67
2022/10/05 05:31:32;;;;;;;;;;;12.10;99.90;;;;;;6113745;23;19905;-76
2022/10/05 05:34:17;;;;;;;;;;;12.20;99.90;;;;;;6106195;23;19905;-75
2022/10/05 05:36:43;;;;;;;;;;;12.60;99.90;;;;;;6111210;23;19909;-75
2022/10/05 05:39:31;;;;;;;;;;;12.90;99.90;;;;;;6110038;23;19956;-75
2022/10/05 05:42:09;;;;;;;;;;;13.20;99.90;;;;;;6110731;23;19907;-75
2022/10/05 05:44:57;;;;;;;;;;;13.70;99.90;;;;;;6105772;23;19901;-75
2022/10/05 05:47:33;;;;;;;;;;;14.10;99.90;;;;;;6084823;23;19967;-77
2022/10/05 05:50:17;;;;;;;;;;;14.20;99.90;;;;;;6105630;23;19940;-75
2022/10/05 05:52:54;;;;;;;;;;;14.10;99.90;;;;;;6114212;23;19908;-74
2022/10/05 05:55:20;;;;;;;;;;;14.20;99.90;;;;;;6110971;23;19924;-75
2022/10/05 05:58:16;;;;;;;;;;;14.60;99.90;;;;;;6111658;23;19912;-75
2022/10/05 06:00:56;;;;;;;;;;;14.90;99.90;;;;;;6105367;23;19972;-75
2022/10/05 06:03:24;;;;;;;;;;;15.00;99.90;;;;;;6104936;23;19967;-75
2022/10/05 06:06:03;;;;;;;;;;;15.40;99.90;;;;;;6112450;23;19901;-75
2022/10/05 06:08:40;;;;;;;;;;;15.60;99.90;;;;;;6114772;23;19940;-75
2022/10/05 06:11:22;;;;;;;;;;;15.90;99.90;;;;;;6102789;23;19968;-77
2022/10/05 06:13:48;;;;;;;;;;;16.30;99.90;;;;;;6085378;23;19897;-77
2022/10/05 06:16:13;;;;;;;;;;;16.50;99.90;;;;;;6113589;23;19908;-75
2022/10/05 06:18:42;;;;;;;;;;;16.70;99.90;;;;;;6108647;23;20393;-75
2022/10/05 06:21:13;;;;;;;;;;;16.30;99.90;;;;;;6102901;23;20330;-76
2022/10/05 06:23:47;;;;;;;;;;;15.80;99.90;;;;;;6110100;23;19905;-75
2022/10/05 06:26:31;;;;;;;;;;;15.30;99.90;;;;;;6109898;23;19905;-75
2022/10/05 06:28:59;;;;;;;;;;;15.30;99.90;;;;;;6105069;23;20348;-75
2022/10/05 06:31:35;;;;;;;;;;;15.80;99.90;;;;;;6113826;23;19901;-75
2022/10/05 06:34:20;;;;;;;;;;;16.10;99.90;;;;;;6110068;23;19901;-75
2022/10/05 06:36:57;;;;;;;;;;;16.10;99.90;;;;;;6109220;23;19909;-75
2022/10/05 06:39:41;;;;;;;;;;;15.80;99.90;;;;;;6104266;23;20541;-75
2022/10/05 06:42:29;;;;;;;;;;;15.70;99.90;;;;;;6104678;23;19907;-76
2022/10/05 06:45:10;;;;;;;;;;;15.70;99.90;;;;;;6108476;23;20552;-75
2022/10/05 06:47:54;;;;;;;;;;;15.80;99.90;;;;;;6108694;23;19911;-75
2022/10/05 06:50:36;;;;;;;;;;;15.30;99.90;;;;;;6111572;23;19908;-77
2022/10/05 06:53:11;;;;;;;;;;;15.70;99.90;;;;;;6115698;23;19924;-75
2022/10/05 06:55:55;;;;;;;;;;;16.40;99.90;;;;;;6110419;23;19913;-75
2022/10/05 06:58:25;;;;;;;;;;;16.10;99.80;;;;;;6111100;23;19908;-77
2022/10/05 07:01:10;;;;;;;;;;;16.80;99.50;;;;;;6109836;23;19908;-74
2022/10/05 07:03:49;;;;;;;;;;;17.20;98.80;;;;;;6108092;23;20322;-76
2022/10/05 07:06:16;;;;;;;;;;;17.50;97.40;;;;;;6110261;23;19972;-75
2022/10/05 07:08:41;;;;;;;;;;;16.80;98.10;;;;;;6106493;23;19905;-76
2022/10/05 07:11:17;;;;;;;;;;;17.00;97.70;;;;;;6104909;23;19905;-76
2022/10/05 07:13:52;;;;;;;;;;;17.00;98.30;;;;;;6111030;23;19935;-76
2022/10/05 07:16:36;;;;;;;;;;;17.70;97.00;;;;;;6104449;23;19916;-75
2022/10/05 07:19:03;;;;;;;;;;;17.50;96.40;;;;;;6109749;23;19901;-75
2022/10/05 07:21:38;;;;;;;;;;;16.10;97.90;;;;;;6110371;23;19936;-75
2022/10/05 07:24:04;;;;;;;;;;;15.60;99.00;;;;;;6112353;23;20658;-75
2022/10/05 07:26:35;;;;;;;;;;;16.00;98.60;;;;;;6113579;23;19901;-76
2022/10/05 07:29:19;;;;;;;;;;;16.30;98.70;;;;;;6111628;23;19900;-75
2022/10/05 07:32:06;;;;;;;;;;;16.90;97.30;;;;;;6113139;23;19924;-76
2022/10/05 07:34:39;;;;;;;;;;;17.60;97.00;;;;;;6117160;23;19979;-75
2022/10/05 07:40:16;;;;;;;;;;;17.50;95.70;;;;;;6113550;23;19981;-78
2022/10/05 07:42:58;;;;;;;;;;;18.80;94.70;;;;;;6112981;23;19939;-78
2022/10/05 07:45:31;;;;;;;;;;;19.00;93.50;;;;;;6113036;23;19905;-78
2022/10/05 07:48:19;;;;;;;;;;;19.00;92.20;;;;;;6113050;23;20581;-78
2022/10/05 07:50:55;;;;;;;;;;;18.70;92.90;;;;;;6111657;23;19928;-79
2022/10/05 07:53:30;;;;;;;;;;;18.50;93.30;;;;;;6083590;23;19913;-78
2022/10/05 07:56:08;;;;;;;;;;;18.70;93.00;;;;;;6052972;23;19921;-78
2022/10/05 07:58:47;;;;;;;;;;;18.60;92.50;;;;;;6082360;23;20327;-78
2022/10/05 08:01:25;;;;;;;;;;;17.80;93.90;;;;;;6078825;23;20300;-78
2022/10/05 08:03:53;;;;;;;;;;;17.60;94.10;;;;;;6057971;23;19933;-75
2022/10/05 08:06:26;;;;;;;;;;;17.90;93.60;;;;;;6083490;23;20000;-75
2022/10/05 08:08:53;;;;;;;;;;;17.80;94.10;;;;;;6083176;23;20276;-77
2022/10/05 08:11:24;;;;;;;;;;;17.80;93.90;;;;;;6058595;23;19929;-78
2022/10/05 08:14:05;;;;;;;;;;;18.00;93.70;;;;;;6082060;23;19905;-78
2022/10/05 08:16:35;;;;;;;;;;;18.10;93.60;;;;;;6081681;23;20311;-78
2022/10/05 08:19:02;;;;;;;;;;;18.80;92.50;;;;;;6087831;23;19928;-79
2022/10/05 08:21:46;;;;;;;;;;;19.30;92.00;;;;;;6078630;23;20431;-77
2022/10/05 08:24:32;;;;;;;;;;;19.40;91.20;;;;;;6082731;23;20564;-78
2022/10/05 08:30:08;;;;;;;;;;;19.60;90.60;;;;;;6084666;23;19908;-79
2022/10/05 08:32:55;;;;;;;;;;;20.70;88.80;;;;;;6083762;23;20340;-78
2022/10/05 08:35:27;;;;;;;;;;;22.00;85.70;;;;;;6082413;23;19980;-77
2022/10/05 08:37:53;;;;;;;;;;;23.10;82.10;;;;;;6081289;23;19909;-77
2022/10/05 08:40:20;;;;;;;;;;;23.90;78.10;;;;;;6082993;23;20380;-76
2022/10/05 08:43:09;;;;;;;;;;;23.90;79.20;;;;;;6077730;23;19905;-77
2022/10/05 08:45:44;;;;;;;;;;;25.10;74.10;;;;;;6081711;23;19901;-77
2022/10/05 08:48:24;;;;;;;;;;;26.30;69.20;;;;;;6076898;23;20316;-77
2022/10/05 08:51:08;;;;;;;;;;;26.50;67.80;;;;;;6081887;23;19984;-78
2022/10/05 08:53:39;;;;;;;;;;;26.90;65.70;;;;;;6110497;23;19963;-81
2022/10/05 08:56:28;;;;;;;;;;;26.00;66.10;;;;;;6107729;23;19905;-80
2022/10/05 08:59:17;;;;;;;;;;;25.20;67.40;;;;;;6104540;23;19956;-81
2022/10/05 09:02:02;;;;;;;;;;;25.20;66.70;;;;;;6110935;23;19907;-78
2022/10/05 09:04:56;;;;;;;;;;;25.20;68.10;;;;;;6110264;23;19909;-78
2022/10/05 09:07:42;;;;;;;;;;;25.00;66.70;;;;;;6117022;23;19976;-79
2022/10/05 09:10:26;;;;;;;;;;;25.10;67.10;;;;;;6116239;23;19908;-79
2022/10/05 09:13:06;;;;;;;;;;;24.50;67.70;;;;;;6109859;23;19972;-81
2022/10/05 09:15:50;;;;;;;;;;;23.80;68.40;;;;;;6111779;23;19951;-81
2022/10/05 09:18:46;;;;;;;;;;;23.80;68.70;;;;;;6085906;23;19905;-81
2022/10/05 09:21:30;;;;;;;;;;;24.30;68.20;;;;;;6105775;23;19928;-79
2022/10/05 09:24:08;;;;;;;;;;;25.10;67.40;;;;;;6114864;23;19901;-78
2022/10/05 09:26:57;;;;;;;;;;;25.80;65.30;;;;;;6106781;23;19924;-78
2022/10/05 09:29:44;;;;;;;;;;;25.70;65.20;;;;;;6104933;23;20252;-78
2022/10/05 09:32:26;;;;;;;;;;;25.70;64.80;;;;;;6108256;23;19966;-80
2022/10/05 09:35:06;;;;;;;;;;;24.80;66.40;;;;;;6109351;23;19912;-81
2022/10/05 09:37:44;;;;;;;;;;;23.70;67.60;;;;;;6116791;23;20330;-80
2022/10/05 09:40:30;;;;;;;;;;;22.00;71.00;;;;;;6110163;23;19905;-81
2022/10/05 09:43:19;;;;;;;;;;;21.50;73.20;;;;;;6109884;23;19901;-81
2022/10/05 09:46:07;;;;;;;;;;;21.60;74.70;;;;;;6110865;23;19905;-81
2022/10/05 09:48:48;;;;;;;;;;;22.50;73.90;;;;;;6106487;23;19952;-80
2022/10/05 09:51:23;;;;;;;;;;;23.80;71.70;;;;;;6110291;23;19905;-79
2022/10/05 09:54:04;;;;;;;;;;;24.10;69.20;;;;;;6111203;23;20311;-80
2022/10/05 09:56:55;;;;;;;;;;;23.40;71.30;;;;;;6110391;23;19983;-79
2022/10/05 09:59:33;;;;;;;;;;;23.30;71.80;;;;;;6110755;23;19900;-77
2022/10/05 10:02:00;;;;;;;;;;;24.00;70.60;;;;;;6108526;23;19928;-78
2022/10/05 10:04:36;;;;;;;;;;;24.40;69.90;;;;;;6109821;23;19908;-81
2022/10/05 10:07:03;;;;;;;;;;;24.20;69.80;;;;;;6109547;23;20135;-78
2022/10/05 10:09:50;;;;;;;;;;;24.70;69.30;;;;;;6106588;23;19908;-78
2022/10/05 10:12:18;;;;;;;;;;;24.70;69.20;;;;;;6109269;23;20007;-78
2022/10/05 10:14:47;;;;;;;;;;;24.20;70.60;;;;;;6110705;23;19905;-78
2022/10/05 10:17:34;;;;;;;;;;;23.50;71.30;;;;;;6108927;23;19920;-79
2022/10/05 10:20:18;;;;;;;;;;;22.00;74.30;;;;;;6110790;23;20041;-81
2022/10/05 10:22:54;;;;;;;;;;;21.50;75.70;;;;;;6110826;23;19905;-81
2022/10/05 10:25:42;;;;;;;;;;;21.40;76.40;;;;;;6103739;23;19952;-81
2022/10/05 10:28:15;;;;;;;;;;;21.20;77.60;;;;;;6108983;23;19909;-80
2022/10/05 10:30:56;;;;;;;;;;;20.40;79.40;;;;;;6112342;23;19936;-80
2022/10/05 10:33:41;;;;;;;;;;;19.90;81.10;;;;;;6083748;23;19901;-79
2022/10/05 10:36:19;;;;;;;;;;;20.00;82.50;;;;;;6110415;23;19909;-80
2022/10/05 10:38:47;;;;;;;;;;;22.00;79.00;;;;;;6103115;23;19905;-80
2022/10/05 10:41:14;;;;;;;;;;;23.60;75.60;;;;;;6109090;23;19979;-77
2022/10/05 10:43:59;;;;;;;;;;;24.80;72.70;;;;;;6109912;23;19921;-81
2022/10/05 10:46:33;;;;;;;;;;;25.70;70.80;;;;;;6111367;23;19980;-79
2022/10/05 10:49:17;;;;;;;;;;;24.70;70.40;;;;;;6106721;23;19915;-79
2022/10/05 10:52:01;;;;;;;;;;;22.60;74.30;;;;;;6105895;23;19917;-79
2022/10/05 10:54:28;;;;;;;;;;;21.70;78.00;;;;;;6101801;23;20378;-80
2022/10/05 10:57:08;;;;;;;;;;;21.20;79.60;;;;;;6106560;23;19932;-80
2022/10/05 11:00:01;;;;;;;;;;;21.10;80.70;;;;;;6107756;23;19905;-82
2022/10/05 11:02:38;;;;;;;;;;;21.10;80.60;;;;;;6060293;23;19952;-80
2022/10/05 11:05:22;;;;;;;;;;;21.20;80.70;;;;;;6104415;23;19954;-81
2022/10/05 11:08:11;;;;;;;;;;;21.00;81.30;;;;;;6108736;23;19909;-80
2022/10/05 11:10:44;;;;;;;;;;;20.80;82.60;;;;;;6105399;23;19928;-80
2022/10/05 11:13:36;;;;;;;;;;;20.80;82.10;;;;;;6110244;23;20311;-80
2022/10/05 11:16:20;;;;;;;;;;;20.90;82.00;;;;;;6020828;23;20386;-80
2022/10/05 11:19:08;;;;;;;;;;;20.70;84.30;;;;;;6110906;23;20192;-79
2022/10/05 11:21:53;;;;;;;;;;;20.80;83.20;;;;;;6103704;23;19901;-81
2022/10/05 11:24:25;;;;;;;;;;;20.80;84.00;;;;;;6103590;23;19905;-80
2022/10/05 11:27:11;;;;;;;;;;;20.90;83.90;;;;;;6110912;23;19901;-81
2022/10/05 11:29:50;;;;;;;;;;;20.80;84.60;;;;;;6107564;23;19944;-81
2022/10/05 11:32:35;;;;;;;;;;;20.90;84.70;;;;;;6109958;23;19901;-81
2022/10/05 11:35:19;;;;;;;;;;;21.10;84.50;;;;;;6108806;23;19952;-81
2022/10/05 11:37:48;;;;;;;;;;;21.20;83.80;;;;;;6104348;23;19909;-81
2022/10/05 11:40:36;;;;;;;;;;;21.10;84.50;;;;;;6109010;23;19905;-79
2022/10/05 11:43:18;;;;;;;;;;;21.30;84.70;;;;;;6108898;23;19908;-80
2022/10/05 11:45:59;;;;;;;;;;;21.30;84.30;;;;;;6109117;23;19901;-81
2022/10/05 11:48:48;;;;;;;;;;;21.20;84.90;;;;;;6110626;23;20234;-80
2022/10/05 11:51:26;;;;;;;;;;;21.10;84.90;;;;;;6108830;23;19937;-81
2022/10/05 11:54:01;;;;;;;;;;;21.00;86.30;;;;;;6108647;23;19939;-79
2022/10/05 11:56:34;;;;;;;;;;;21.20;86.20;;;;;;6110064;23;20004;-78
2022/10/05 11:59:19;;;;;;;;;;;21.30;86.00;;;;;;6105368;23;19905;-78
2022/10/05 12:01:50;;;;;;;;;;;21.30;86.00;;;;;;6110688;23;19905;-80
2022/10/05 12:04:36;;;;;;;;;;;21.10;86.50;;;;;;6108926;23;20212;-80
2022/10/05 12:07:22;;;;;;;;;;;21.10;86.90;;;;;;6109417;23;19923;-81
2022/10/05 12:12:48;;;;;;;;;;;21.70;87.40;;;;;;6111755;23;19980;-79
2022/10/05 12:15:42;;;;;;;;;;;22.00;85.30;;;;;;6114319;23;20282;-79
2022/10/05 12:18:32;;;;;;;;;;;22.10;84.90;;;;;;6066775;23;19936;-80
2022/10/05 12:21:31;;;;;;;;;;;21.90;85.40;;;;;;6071125;23;19912;-79
2022/10/05 12:24:01;;;;;;;;;;;21.50;85.40;;;;;;6041780;23;19916;-81
2022/10/05 12:26:43;;;;;;;;;;;21.50;86.80;;;;;;6112098;23;19897;-81
2022/10/05 12:29:24;;;;;;;;;;;21.50;86.40;;;;;;6109087;23;20573;-70
2022/10/05 12:31:56;;;;;;;;;;;21.40;87.10;;;;;;6111666;23;20477;-70
2022/10/05 12:34:27;;;;;;;;;;;21.30;87.90;;;;;;6108579;23;19901;-71
2022/10/05 12:36:59;;;;;;;;;;;21.20;89.50;;;;;;6108486;23;19909;-69
2022/10/05 12:39:31;;;;;;;;;;;21.30;88.90;;;;;;6108220;23;20218;-71
2022/10/05 12:42:05;;;;;;;;;;;21.30;88.30;;;;;;6101687;23;19908;-71
2022/10/05 12:44:49;;;;;;;;;;;21.20;88.30;;;;;;6107661;23;20227;-71
2022/10/05 12:47:38;;;;;;;;;;;21.00;88.50;;;;;;6108771;23;19904;-71
2022/10/05 12:50:18;;;;;;;;;;;20.80;89.00;;;;;;6092697;23;20296;-72
2022/10/05 12:52:54;;;;;;;;;;;20.50;90.20;;;;;;6107558;23;19983;-72
2022/10/05 12:55:31;;;;;;;;;;;20.50;90.40;;;;;;6102117;23;19905;-72
2022/10/05 12:57:56;;;;;;;;;;;20.60;90.50;;;;;;6107307;23;20560;-73
2022/10/05 13:00:23;;;;;;;;;;;20.80;90.60;;;;;;6106983;23;19905;-73
2022/10/05 13:02:52;;;;;;;;;;;21.00;90.30;;;;;;6107283;23;19916;-72
2022/10/05 13:05:30;;;;;;;;;;;21.00;90.20;;;;;;6108543;23;19963;-73
2022/10/05 13:08:04;;;;;;;;;;;21.00;90.10;;;;;;6103257;23;19901;-73
2022/10/05 13:10:45;;;;;;;;;;;21.10;90.00;;;;;;6105727;23;19963;-72
2022/10/05 13:13:23;;;;;;;;;;;21.00;90.30;;;;;;6107879;23;19911;-71
2022/10/05 13:16:07;;;;;;;;;;;20.90;90.40;;;;;;6107663;23;19975;-71
2022/10/05 13:18:51;;;;;;;;;;;20.90;90.70;;;;;;6108185;23;20316;-73
2022/10/05 13:21:19;;;;;;;;;;;20.80;90.60;;;;;;6106836;23;19927;-73
2022/10/05 13:23:45;;;;;;;;;;;20.80;90.70;;;;;;6113206;23;19905;-72
2022/10/05 13:26:13;;;;;;;;;;;20.80;90.80;;;;;;6103100;23;20655;-72
2022/10/05 13:28:43;;;;;;;;;;;20.90;90.50;;;;;;6108102;23;20012;-72
2022/10/05 13:31:20;;;;;;;;;;;21.00;90.90;;;;;;6106990;23;20011;-73
2022/10/05 13:34:05;;;;;;;;;;;21.10;90.60;;;;;;6111927;23;19983;-74
2022/10/05 13:36:40;;;;;;;;;;;21.00;90.50;;;;;;6106642;23;19912;-73
2022/10/05 13:39:05;;;;;;;;;;;21.00;90.70;;;;;;6108432;23;19996;-73
2022/10/05 13:41:34;;;;;;;;;;;20.90;90.80;;;;;;6106520;23;19936;-72
2022/10/05 13:44:10;;;;;;;;;;;21.00;90.70;;;;;;6106015;23;19937;-72
2022/10/05 13:46:42;;;;;;;;;;;20.90;91.00;;;;;;6107672;23;20378;-72
2022/10/05 13:49:10;;;;;;;;;;;20.80;91.00;;;;;;6108409;23;19904;-72
2022/10/05 13:51:44;;;;;;;;;;;20.70;91.30;;;;;;6106933;23;20692;-73
2022/10/05 13:54:17;;;;;;;;;;;20.70;91.70;;;;;;6081671;23;20314;-72
2022/10/05 13:56:50;;;;;;;;;;;20.80;91.30;;;;;;6107929;23;19913;-71
2022/10/05 13:59:31;;;;;;;;;;;20.70;91.30;;;;;;6108072;23;19912;-72
2022/10/05 14:02:01;;;;;;;;;;;20.70;91.90;;;;;;6113653;23;20200;-78
2022/10/05 14:04:28;;;;;;;;;;;20.60;92.50;;;;;;6106992;23;19905;-72
2022/10/05 14:06:54;;;;;;;;;;;20.50;92.30;;;;;;6107663;23;19905;-72
2022/10/05 14:09:20;;;;;;;;;;;20.40;92.50;;;;;;6106646;23;20001;-72
2022/10/05 14:11:49;;;;;;;;;;;20.20;92.90;;;;;;6107348;23;20315;-70
2022/10/05 14:14:22;;;;;;;;;;;20.10;93.10;;;;;;6108265;23;19905;-69
2022/10/05 14:17:10;;;;;;;;;;;19.90;93.40;;;;;;6105284;23;19909;-71
2022/10/05 14:19:43;;;;;;;;;;;19.90;93.50;;;;;;6107352;23;20333;-72
2022/10/05 14:22:21;;;;;;;;;;;19.90;93.60;;;;;;6111672;23;19905;-72
2022/10/05 14:25:12;;;;;;;;;;;20.00;94.00;;;;;;6111845;23;19920;-73
2022/10/05 14:27:53;;;;;;;;;;;20.00;93.90;;;;;;6107055;23;19916;-72
2022/10/05 14:30:22;;;;;;;;;;;19.90;93.70;;;;;;6110039;23;19905;-73
2022/10/05 14:32:58;;;;;;;;;;;19.80;94.10;;;;;;6105129;23;19960;-72
2022/10/05 14:35:25;;;;;;;;;;;19.70;94.50;;;;;;6102214;23;19905;-73
2022/10/05 14:37:56;;;;;;;;;;;19.70;94.90;;;;;;6107506;23;20019;-73
2022/10/05 14:40:22;;;;;;;;;;;19.70;95.10;;;;;;6105422;23;19944;-72
2022/10/05 14:42:48;;;;;;;;;;;19.70;95.20;;;;;;6106947;23;19909;-72
2022/10/05 14:45:16;;;;;;;;;;;19.70;95.10;;;;;;6107562;23;20002;-73
2022/10/05 14:47:49;;;;;;;;;;;19.70;95.30;;;;;;6107491;23;19940;-72
2022/10/05 14:50:17;;;;;;;;;;;19.60;95.50;;;;;;6107200;23;19904;-73
2022/10/05 14:52:46;;;;;;;;;;;19.60;95.60;;;;;;6108416;23;19917;-73
2022/10/05 14:55:26;;;;;;;;;;;19.50;95.90;;;;;;6107679;23;19904;-73
2022/10/05 14:58:15;;;;;;;;;;;19.50;96.20;;;;;;6086622;23;19909;-73
2022/10/05 15:00:47;;;;;;;;;;;19.50;96.20;;;;;;6027432;23;20283;-72
2022/10/05 15:03:36;;;;;;;;;;;19.50;96.10;;;;;;6102838;23;19905;-73
2022/10/05 15:06:07;;;;;;;;;;;19.50;96.40;;;;;;6092199;23;19905;-73
2022/10/05 15:08:36;;;;;;;;;;;19.40;96.50;;;;;;6107156;23;19948;-73
2022/10/05 15:11:05;;;;;;;;;;;19.40;96.80;;;;;;6106543;23;19901;-72
2022/10/05 15:13:40;;;;;;;;;;;19.40;97.00;;;;;;6102167;23;19996;-73
2022/10/05 15:16:23;;;;;;;;;;;19.40;96.90;;;;;;6106870;23;19916;-72
2022/10/05 15:19:00;;;;;;;;;;;19.40;97.00;;;;;;6105523;23;19908;-72
2022/10/05 15:21:28;;;;;;;;;;;19.30;97.00;;;;;;6106667;23;19901;-73
2022/10/05 15:24:03;;;;;;;;;;;19.30;97.20;;;;;;6106212;23;20271;-73
2022/10/05 15:26:38;;;;;;;;;;;19.30;97.40;;;;;;6107252;23;20366;-73